sensor_id;sensor_type;location;lat;lon;timestamp;P1;durP1;ratioP1;P2;durP2;ratioP2
46216;SDS011;47258;59.424;13.482;2022-07-24T00:00:37;0.90;;;0.90;;
46216;SDS011;47258;59.424;13.482;2022-07-24T00:03:05;1.67;;;1.30;;
46216;SDS011;47258;59.424;13.482;2022-07-24T00:05:32;1.30;;;1.23;;
46216;SDS011;47258;59.424;13.482;2022-07-24T00:07:59;1.08;;;1.08;;
46216;SDS011;47258;59.424;13.482;2022-07-24T00:10:27;2.95;;;1.20;;
46216;SDS011;47258;59.424;13.482;2022-07-24T00:12:56;1.33;;;1.33;;
46216;SDS011;47258;59.424;13.482;2022-07-24T00:15:23;2.75;;;1.45;;
46216;SDS011;47258;59.424;13.482;2022-07-24T00:17:50;1.33;;;1.33;;
46216;SDS011;47258;59.424;13.482;2022-07-24T00:20:18;1.30;;;1.30;;
46216;SDS011;47258;59.424;13.482;2022-07-24T00:22:46;1.17;;;1.08;;
46216;SDS011;47258;59.424;13.482;2022-07-24T00:25:13;1.38;;;1.27;;
46216;SDS011;47258;59.424;13.482;2022-07-24T00:27:40;2.67;;;1.20;;
46216;SDS011;47258;59.424;13.482;2022-07-24T00:30:08;1.25;;;1.17;;
46216;SDS011;47258;59.424;13.482;2022-07-24T00:32:35;1.90;;;1.80;;
46216;SDS011;47258;59.424;13.482;2022-07-24T00:35:02;1.58;;;1.48;;
46216;SDS011;47258;59.424;13.482;2022-07-24T00:37:31;1.83;;;1.77;;
46216;SDS011;47258;59.424;13.482;2022-07-24T00:39:58;2.60;;;2.13;;
46216;SDS011;47258;59.424;13.482;2022-07-24T00:42:25;1.08;;;1.08;;
46216;SDS011;47258;59.424;13.482;2022-07-24T00:44:53;2.75;;;1.40;;
46216;SDS011;47258;59.424;13.482;2022-07-24T00:47:20;1.80;;;1.27;;
46216;SDS011;47258;59.424;13.482;2022-07-24T00:49:47;1.10;;;1.10;;
46216;SDS011;47258;59.424;13.482;2022-07-24T00:52:14;0.98;;;0.98;;
46216;SDS011;47258;59.424;13.482;2022-07-24T00:54:42;1.55;;;1.45;;
46216;SDS011;47258;59.424;13.482;2022-07-24T00:57:10;1.73;;;1.55;;
46216;SDS011;47258;59.424;13.482;2022-07-24T00:59:37;1.27;;;1.27;;
46216;SDS011;47258;59.424;13.482;2022-07-24T01:02:04;1.77;;;1.67;;
46216;SDS011;47258;59.424;13.482;2022-07-24T01:04:45;1.58;;;1.48;;
46216;SDS011;47258;59.424;13.482;2022-07-24T01:07:13;1.40;;;1.30;;
46216;SDS011;47258;59.424;13.482;2022-07-24T01:09:40;1.38;;;1.08;;
46216;SDS011;47258;59.424;13.482;2022-07-24T01:12:09;2.00;;;1.80;;
46216;SDS011;47258;59.424;13.482;2022-07-24T01:14:36;1.80;;;1.70;;
46216;SDS011;47258;59.424;13.482;2022-07-24T01:17:03;3.47;;;1.70;;
46216;SDS011;47258;59.424;13.482;2022-07-24T01:19:30;1.63;;;1.52;;
46216;SDS011;47258;59.424;13.482;2022-07-24T01:21:59;3.75;;;1.30;;
46216;SDS011;47258;59.424;13.482;2022-07-24T01:24:26;1.67;;;1.58;;
46216;SDS011;47258;59.424;13.482;2022-07-24T01:26:53;1.63;;;1.52;;
46216;SDS011;47258;59.424;13.482;2022-07-24T01:29:20;1.85;;;1.75;;
46216;SDS011;47258;59.424;13.482;2022-07-24T01:31:47;1.95;;;1.75;;
46216;SDS011;47258;59.424;13.482;2022-07-24T01:34:14;4.43;;;1.70;;
46216;SDS011;47258;59.424;13.482;2022-07-24T01:36:41;1.75;;;1.08;;
46216;SDS011;47258;59.424;13.482;2022-07-24T01:39:10;1.65;;;1.30;;
46216;SDS011;47258;59.424;13.482;2022-07-24T01:41:37;2.13;;;1.95;;
46216;SDS011;47258;59.424;13.482;2022-07-24T01:44:04;2.53;;;2.15;;
46216;SDS011;47258;59.424;13.482;2022-07-24T01:46:31;2.20;;;2.00;;
46216;SDS011;47258;59.424;13.482;2022-07-24T01:48:58;2.35;;;2.15;;
46216;SDS011;47258;59.424;13.482;2022-07-24T01:51:25;1.75;;;1.65;;
46216;SDS011;47258;59.424;13.482;2022-07-24T01:53:52;2.20;;;2.00;;
46216;SDS011;47258;59.424;13.482;2022-07-24T01:56:20;2.35;;;1.90;;
46216;SDS011;47258;59.424;13.482;2022-07-24T01:58:47;3.60;;;2.67;;
46216;SDS011;47258;59.424;13.482;2022-07-24T02:01:14;2.65;;;1.85;;
46216;SDS011;47258;59.424;13.482;2022-07-24T02:03:41;1.33;;;1.33;;
46216;SDS011;47258;59.424;13.482;2022-07-24T02:06:08;1.40;;;1.30;;
46216;SDS011;47258;59.424;13.482;2022-07-24T02:08:35;1.45;;;1.42;;
46216;SDS011;47258;59.424;13.482;2022-07-24T02:11:02;1.70;;;1.60;;
46216;SDS011;47258;59.424;13.482;2022-07-24T02:13:30;1.58;;;1.45;;
46216;SDS011;47258;59.424;13.482;2022-07-24T02:15:57;1.00;;;1.00;;
46216;SDS011;47258;59.424;13.482;2022-07-24T02:18:24;24.40;;;1.98;;
46216;SDS011;47258;59.424;13.482;2022-07-24T02:20:52;2.08;;;1.88;;
46216;SDS011;47258;59.424;13.482;2022-07-24T02:23:19;2.10;;;1.73;;
46216;SDS011;47258;59.424;13.482;2022-07-24T02:25:46;1.20;;;1.20;;
46216;SDS011;47258;59.424;13.482;2022-07-24T02:28:14;2.22;;;2.05;;
46216;SDS011;47258;59.424;13.482;2022-07-24T02:30:43;1.98;;;1.88;;
46216;SDS011;47258;59.424;13.482;2022-07-24T02:38:21;5.63;;;3.10;;
46216;SDS011;47258;59.424;13.482;2022-07-24T02:40:48;3.20;;;2.47;;
46216;SDS011;47258;59.424;13.482;2022-07-24T02:43:15;6.10;;;2.95;;
46216;SDS011;47258;59.424;13.482;2022-07-24T02:45:44;3.28;;;1.90;;
46216;SDS011;47258;59.424;13.482;2022-07-24T02:48:10;2.50;;;2.22;;
46216;SDS011;47258;59.424;13.482;2022-07-24T02:50:37;3.70;;;2.13;;
46216;SDS011;47258;59.424;13.482;2022-07-24T02:53:05;1.38;;;1.27;;
46216;SDS011;47258;59.424;13.482;2022-07-24T02:55:32;2.50;;;2.30;;
46216;SDS011;47258;59.424;13.482;2022-07-24T02:57:59;2.22;;;2.03;;
46216;SDS011;47258;59.424;13.482;2022-07-24T03:00:26;1.63;;;1.52;;
46216;SDS011;47258;59.424;13.482;2022-07-24T03:02:54;1.80;;;1.70;;
46216;SDS011;47258;59.424;13.482;2022-07-24T03:05:21;2.13;;;2.03;;
46216;SDS011;47258;59.424;13.482;2022-07-24T03:07:48;2.47;;;1.90;;
46216;SDS011;47258;59.424;13.482;2022-07-24T03:10:16;2.00;;;1.90;;
46216;SDS011;47258;59.424;13.482;2022-07-24T03:12:43;33.10;;;3.15;;
46216;SDS011;47258;59.424;13.482;2022-07-24T03:15:11;2.60;;;2.40;;
46216;SDS011;47258;59.424;13.482;2022-07-24T03:17:38;1.98;;;1.88;;
46216;SDS011;47258;59.424;13.482;2022-07-24T03:20:08;2.35;;;2.13;;
46216;SDS011;47258;59.424;13.482;2022-07-24T03:22:36;2.70;;;2.15;;
46216;SDS011;47258;59.424;13.482;2022-07-24T03:25:03;2.28;;;2.08;;
46216;SDS011;47258;59.424;13.482;2022-07-24T03:27:30;3.08;;;2.00;;
46216;SDS011;47258;59.424;13.482;2022-07-24T03:29:57;2.95;;;2.17;;
46216;SDS011;47258;59.424;13.482;2022-07-24T03:32:24;4.00;;;2.15;;
46216;SDS011;47258;59.424;13.482;2022-07-24T03:34:51;3.42;;;1.98;;
46216;SDS011;47258;59.424;13.482;2022-07-24T03:37:19;2.10;;;2.00;;
46216;SDS011;47258;59.424;13.482;2022-07-24T03:39:46;4.82;;;3.22;;
46216;SDS011;47258;59.424;13.482;2022-07-24T03:42:13;3.45;;;2.00;;
46216;SDS011;47258;59.424;13.482;2022-07-24T03:44:40;3.13;;;2.58;;
46216;SDS011;47258;59.424;13.482;2022-07-24T03:47:07;3.00;;;2.70;;
46216;SDS011;47258;59.424;13.482;2022-07-24T03:49:34;2.30;;;2.20;;
46216;SDS011;47258;59.424;13.482;2022-07-24T03:52:01;2.60;;;2.40;;
46216;SDS011;47258;59.424;13.482;2022-07-24T03:54:30;2.25;;;2.08;;
46216;SDS011;47258;59.424;13.482;2022-07-24T03:56:57;15.07;;;2.95;;
46216;SDS011;47258;59.424;13.482;2022-07-24T03:59:24;2.28;;;2.17;;
46216;SDS011;47258;59.424;13.482;2022-07-24T04:01:51;2.85;;;2.75;;
46216;SDS011;47258;59.424;13.482;2022-07-24T04:04:18;3.70;;;2.33;;
46216;SDS011;47258;59.424;13.482;2022-07-24T04:06:45;1.42;;;1.42;;
46216;SDS011;47258;59.424;13.482;2022-07-24T04:09:12;6.20;;;1.08;;
46216;SDS011;47258;59.424;13.482;2022-07-24T04:11:40;2.80;;;2.60;;
46216;SDS011;47258;59.424;13.482;2022-07-24T04:14:09;2.78;;;2.58;;
46216;SDS011;47258;59.424;13.482;2022-07-24T04:16:36;2.15;;;2.05;;
46216;SDS011;47258;59.424;13.482;2022-07-24T04:19:03;1.80;;;1.70;;
46216;SDS011;47258;59.424;13.482;2022-07-24T04:21:30;2.40;;;2.05;;
46216;SDS011;47258;59.424;13.482;2022-07-24T04:23:57;2.10;;;2.00;;
46216;SDS011;47258;59.424;13.482;2022-07-24T04:26:24;2.28;;;2.15;;
46216;SDS011;47258;59.424;13.482;2022-07-24T04:28:53;2.38;;;2.28;;
46216;SDS011;47258;59.424;13.482;2022-07-24T04:31:19;2.55;;;2.45;;
46216;SDS011;47258;59.424;13.482;2022-07-24T04:33:46;2.20;;;2.10;;
46216;SDS011;47258;59.424;13.482;2022-07-24T04:36:13;2.58;;;2.47;;
46216;SDS011;47258;59.424;13.482;2022-07-24T04:38:40;2.20;;;2.10;;
46216;SDS011;47258;59.424;13.482;2022-07-24T04:41:07;2.83;;;2.58;;
46216;SDS011;47258;59.424;13.482;2022-07-24T04:43:35;3.13;;;2.63;;
46216;SDS011;47258;59.424;13.482;2022-07-24T04:46:03;2.67;;;2.47;;
46216;SDS011;47258;59.424;13.482;2022-07-24T04:48:30;3.00;;;2.80;;
46216;SDS011;47258;59.424;13.482;2022-07-24T04:50:58;4.43;;;3.22;;
46216;SDS011;47258;59.424;13.482;2022-07-24T04:53:25;8.50;;;5.95;;
46216;SDS011;47258;59.424;13.482;2022-07-24T04:55:52;11.57;;;7.68;;
46216;SDS011;47258;59.424;13.482;2022-07-24T04:58:19;11.00;;;7.60;;
46216;SDS011;47258;59.424;13.482;2022-07-24T05:00:46;14.13;;;7.90;;
46216;SDS011;47258;59.424;13.482;2022-07-24T05:03:14;13.80;;;8.82;;
46216;SDS011;47258;59.424;13.482;2022-07-24T05:05:41;16.60;;;8.25;;
46216;SDS011;47258;59.424;13.482;2022-07-24T05:08:08;19.58;;;10.63;;
46216;SDS011;47258;59.424;13.482;2022-07-24T05:10:35;26.10;;;13.80;;
46216;SDS011;47258;59.424;13.482;2022-07-24T05:13:02;27.40;;;16.55;;
46216;SDS011;47258;59.424;13.482;2022-07-24T05:15:29;28.70;;;15.63;;
46216;SDS011;47258;59.424;13.482;2022-07-24T05:17:56;24.45;;;14.25;;
46216;SDS011;47258;59.424;13.482;2022-07-24T05:20:24;21.88;;;14.20;;
46216;SDS011;47258;59.424;13.482;2022-07-24T05:22:51;19.90;;;13.38;;
46216;SDS011;47258;59.424;13.482;2022-07-24T05:25:18;23.80;;;13.35;;
46216;SDS011;47258;59.424;13.482;2022-07-24T05:27:45;17.75;;;10.98;;
46216;SDS011;47258;59.424;13.482;2022-07-24T05:30:12;13.27;;;9.18;;
46216;SDS011;47258;59.424;13.482;2022-07-24T05:32:39;11.52;;;9.43;;
46216;SDS011;47258;59.424;13.482;2022-07-24T05:35:07;9.52;;;8.00;;
46216;SDS011;47258;59.424;13.482;2022-07-24T05:37:35;8.73;;;7.30;;
46216;SDS011;47258;59.424;13.482;2022-07-24T05:40:03;8.50;;;6.88;;
46216;SDS011;47258;59.424;13.482;2022-07-24T05:42:30;7.75;;;5.88;;
46216;SDS011;47258;59.424;13.482;2022-07-24T05:44:58;4.72;;;3.05;;
46216;SDS011;47258;59.424;13.482;2022-07-24T05:47:25;4.40;;;3.50;;
46216;SDS011;47258;59.424;13.482;2022-07-24T05:49:52;3.15;;;2.47;;
46216;SDS011;47258;59.424;13.482;2022-07-24T05:52:19;3.60;;;3.22;;
46216;SDS011;47258;59.424;13.482;2022-07-24T05:54:47;4.53;;;2.90;;
46216;SDS011;47258;59.424;13.482;2022-07-24T05:57:14;2.95;;;2.75;;
46216;SDS011;47258;59.424;13.482;2022-07-24T05:59:41;3.55;;;2.92;;
46216;SDS011;47258;59.424;13.482;2022-07-24T06:02:08;5.20;;;2.53;;
46216;SDS011;47258;59.424;13.482;2022-07-24T06:04:35;1.65;;;1.55;;
46216;SDS011;47258;59.424;13.482;2022-07-24T06:07:07;1.70;;;1.60;;
46216;SDS011;47258;59.424;13.482;2022-07-24T06:09:34;1.92;;;1.67;;
46216;SDS011;47258;59.424;13.482;2022-07-24T06:12:02;1.55;;;1.42;;
46216;SDS011;47258;59.424;13.482;2022-07-24T06:14:30;1.67;;;1.30;;
46216;SDS011;47258;59.424;13.482;2022-07-24T06:16:57;3.80;;;1.30;;
46216;SDS011;47258;59.424;13.482;2022-07-24T06:19:24;7.78;;;1.67;;
46216;SDS011;47258;59.424;13.482;2022-07-24T06:21:51;1.40;;;1.30;;
46216;SDS011;47258;59.424;13.482;2022-07-24T06:24:18;1.38;;;1.30;;
46216;SDS011;47258;59.424;13.482;2022-07-24T06:26:45;0.90;;;0.85;;
46216;SDS011;47258;59.424;13.482;2022-07-24T06:29:14;1.10;;;0.93;;
46216;SDS011;47258;59.424;13.482;2022-07-24T06:31:41;3.63;;;1.40;;
46216;SDS011;47258;59.424;13.482;2022-07-24T06:34:07;2.20;;;1.00;;
46216;SDS011;47258;59.424;13.482;2022-07-24T06:36:34;1.95;;;1.10;;
46216;SDS011;47258;59.424;13.482;2022-07-24T06:39:01;1.75;;;0.80;;
46216;SDS011;47258;59.424;13.482;2022-07-24T06:41:28;3.22;;;1.50;;
46216;SDS011;47258;59.424;13.482;2022-07-24T06:43:55;1.50;;;0.95;;
46216;SDS011;47258;59.424;13.482;2022-07-24T06:46:25;4.93;;;1.60;;
46216;SDS011;47258;59.424;13.482;2022-07-24T06:48:52;1.67;;;1.58;;
46216;SDS011;47258;59.424;13.482;2022-07-24T06:51:19;2.60;;;1.45;;
46216;SDS011;47258;59.424;13.482;2022-07-24T06:53:46;2.83;;;1.10;;
46216;SDS011;47258;59.424;13.482;2022-07-24T06:56:13;2.30;;;1.25;;
46216;SDS011;47258;59.424;13.482;2022-07-24T06:58:40;2.92;;;1.40;;
46216;SDS011;47258;59.424;13.482;2022-07-24T07:01:08;3.92;;;1.60;;
46216;SDS011;47258;59.424;13.482;2022-07-24T07:03:37;2.50;;;1.30;;
46216;SDS011;47258;59.424;13.482;2022-07-24T07:06:04;4.10;;;1.52;;
46216;SDS011;47258;59.424;13.482;2022-07-24T07:08:31;4.57;;;2.20;;
46216;SDS011;47258;59.424;13.482;2022-07-24T07:10:58;1.85;;;1.10;;
46216;SDS011;47258;59.424;13.482;2022-07-24T07:13:25;4.88;;;1.35;;
46216;SDS011;47258;59.424;13.482;2022-07-24T07:15:52;2.03;;;1.27;;
46216;SDS011;47258;59.424;13.482;2022-07-24T07:18:19;8.82;;;1.70;;
46216;SDS011;47258;59.424;13.482;2022-07-24T07:20:48;4.05;;;2.10;;
46216;SDS011;47258;59.424;13.482;2022-07-24T07:23:18;3.88;;;1.35;;
46216;SDS011;47258;59.424;13.482;2022-07-24T07:25:47;7.80;;;2.08;;
46216;SDS011;47258;59.424;13.482;2022-07-24T07:28:14;8.07;;;2.78;;
46216;SDS011;47258;59.424;13.482;2022-07-24T07:30:41;5.25;;;1.23;;
46216;SDS011;47258;59.424;13.482;2022-07-24T07:33:08;3.25;;;2.25;;
46216;SDS011;47258;59.424;13.482;2022-07-24T07:35:35;3.63;;;2.08;;
46216;SDS011;47258;59.424;13.482;2022-07-24T07:38:03;4.05;;;1.83;;
46216;SDS011;47258;59.424;13.482;2022-07-24T07:40:30;3.53;;;1.13;;
46216;SDS011;47258;59.424;13.482;2022-07-24T07:42:57;5.05;;;1.50;;
46216;SDS011;47258;59.424;13.482;2022-07-24T07:45:24;2.67;;;1.90;;
46216;SDS011;47258;59.424;13.482;2022-07-24T07:47:51;5.70;;;1.58;;
46216;SDS011;47258;59.424;13.482;2022-07-24T07:50:18;4.80;;;2.05;;
46216;SDS011;47258;59.424;13.482;2022-07-24T07:52:45;7.93;;;1.50;;
46216;SDS011;47258;59.424;13.482;2022-07-24T07:55:13;5.82;;;1.88;;
46216;SDS011;47258;59.424;13.482;2022-07-24T07:57:40;3.80;;;2.28;;
46216;SDS011;47258;59.424;13.482;2022-07-24T08:00:08;3.22;;;2.08;;
46216;SDS011;47258;59.424;13.482;2022-07-24T08:02:36;5.07;;;1.55;;
46216;SDS011;47258;59.424;13.482;2022-07-24T08:05:03;2.53;;;1.40;;
46216;SDS011;47258;59.424;13.482;2022-07-24T08:07:31;4.00;;;2.03;;
46216;SDS011;47258;59.424;13.482;2022-07-24T08:09:58;5.85;;;1.88;;
46216;SDS011;47258;59.424;13.482;2022-07-24T08:12:27;11.07;;;2.88;;
46216;SDS011;47258;59.424;13.482;2022-07-24T08:14:53;3.58;;;1.77;;
46216;SDS011;47258;59.424;13.482;2022-07-24T08:17:20;1.90;;;1.65;;
46216;SDS011;47258;59.424;13.482;2022-07-24T08:19:47;4.35;;;1.77;;
46216;SDS011;47258;59.424;13.482;2022-07-24T08:22:14;5.90;;;1.90;;
46216;SDS011;47258;59.424;13.482;2022-07-24T08:24:41;4.05;;;2.40;;
46216;SDS011;47258;59.424;13.482;2022-07-24T08:27:08;3.55;;;1.80;;
46216;SDS011;47258;59.424;13.482;2022-07-24T08:29:37;4.32;;;2.00;;
46216;SDS011;47258;59.424;13.482;2022-07-24T08:32:04;2.55;;;1.77;;
46216;SDS011;47258;59.424;13.482;2022-07-24T08:34:31;2.75;;;1.58;;
46216;SDS011;47258;59.424;13.482;2022-07-24T08:36:58;5.18;;;1.75;;
46216;SDS011;47258;59.424;13.482;2022-07-24T08:39:25;2.72;;;1.70;;
46216;SDS011;47258;59.424;13.482;2022-07-24T08:41:52;2.67;;;1.80;;
46216;SDS011;47258;59.424;13.482;2022-07-24T08:44:19;4.65;;;2.08;;
46216;SDS011;47258;59.424;13.482;2022-07-24T08:46:48;4.80;;;1.77;;
46216;SDS011;47258;59.424;13.482;2022-07-24T08:49:18;5.88;;;1.90;;
46216;SDS011;47258;59.424;13.482;2022-07-24T08:51:47;3.75;;;1.50;;
46216;SDS011;47258;59.424;13.482;2022-07-24T08:54:15;6.78;;;3.00;;
46216;SDS011;47258;59.424;13.482;2022-07-24T08:56:42;3.03;;;1.75;;
46216;SDS011;47258;59.424;13.482;2022-07-24T08:59:15;3.15;;;2.00;;
46216;SDS011;47258;59.424;13.482;2022-07-24T09:01:43;8.15;;;2.35;;
46216;SDS011;47258;59.424;13.482;2022-07-24T09:07:04;4.75;;;1.75;;
46216;SDS011;47258;59.424;13.482;2022-07-24T09:09:32;5.47;;;1.95;;
46216;SDS011;47258;59.424;13.482;2022-07-24T09:12:04;5.30;;;1.85;;
46216;SDS011;47258;59.424;13.482;2022-07-24T09:14:33;4.65;;;2.05;;
46216;SDS011;47258;59.424;13.482;2022-07-24T09:17:01;6.75;;;2.00;;
46216;SDS011;47258;59.424;13.482;2022-07-24T09:19:29;9.68;;;2.20;;
46216;SDS011;47258;59.424;13.482;2022-07-24T09:21:58;3.13;;;1.70;;
46216;SDS011;47258;59.424;13.482;2022-07-24T09:24:25;6.45;;;2.22;;
46216;SDS011;47258;59.424;13.482;2022-07-24T09:26:54;2.85;;;1.80;;
46216;SDS011;47258;59.424;13.482;2022-07-24T09:29:23;6.78;;;2.28;;
46216;SDS011;47258;59.424;13.482;2022-07-24T09:31:51;6.65;;;2.38;;
46216;SDS011;47258;59.424;13.482;2022-07-24T09:34:20;6.97;;;2.47;;
46216;SDS011;47258;59.424;13.482;2022-07-24T09:37:01;2.00;;;1.55;;
46216;SDS011;47258;59.424;13.482;2022-07-24T09:39:30;4.82;;;1.73;;
46216;SDS011;47258;59.424;13.482;2022-07-24T09:41:58;4.60;;;1.80;;
46216;SDS011;47258;59.424;13.482;2022-07-24T09:44:26;6.55;;;2.40;;
46216;SDS011;47258;59.424;13.482;2022-07-24T09:46:55;3.40;;;1.85;;
46216;SDS011;47258;59.424;13.482;2022-07-24T09:49:23;5.07;;;2.17;;
46216;SDS011;47258;59.424;13.482;2022-07-24T09:54:37;7.03;;;2.70;;
46216;SDS011;47258;59.424;13.482;2022-07-24T09:57:18;3.92;;;2.45;;
46216;SDS011;47258;59.424;13.482;2022-07-24T09:59:48;4.97;;;1.80;;
46216;SDS011;47258;59.424;13.482;2022-07-24T10:02:17;4.88;;;2.42;;
46216;SDS011;47258;59.424;13.482;2022-07-24T10:04:47;7.35;;;1.90;;
46216;SDS011;47258;59.424;13.482;2022-07-24T10:07:17;5.47;;;1.75;;
46216;SDS011;47258;59.424;13.482;2022-07-24T10:09:46;8.57;;;2.20;;
46216;SDS011;47258;59.424;13.482;2022-07-24T10:12:14;3.83;;;1.75;;
46216;SDS011;47258;59.424;13.482;2022-07-24T10:14:43;6.20;;;2.33;;
46216;SDS011;47258;59.424;13.482;2022-07-24T10:17:11;14.10;;;3.22;;
46216;SDS011;47258;59.424;13.482;2022-07-24T10:19:41;3.35;;;2.10;;
46216;SDS011;47258;59.424;13.482;2022-07-24T10:22:11;4.05;;;2.83;;
46216;SDS011;47258;59.424;13.482;2022-07-24T10:24:54;5.70;;;2.28;;
46216;SDS011;47258;59.424;13.482;2022-07-24T10:27:24;6.75;;;2.75;;
46216;SDS011;47258;59.424;13.482;2022-07-24T10:29:53;4.32;;;1.67;;
46216;SDS011;47258;59.424;13.482;2022-07-24T10:32:22;5.00;;;2.17;;
46216;SDS011;47258;59.424;13.482;2022-07-24T10:34:51;4.20;;;1.88;;
46216;SDS011;47258;59.424;13.482;2022-07-24T10:37:28;4.28;;;1.85;;
46216;SDS011;47258;59.424;13.482;2022-07-24T10:40:04;6.28;;;1.98;;
46216;SDS011;47258;59.424;13.482;2022-07-24T10:45:35;6.80;;;1.70;;
46216;SDS011;47258;59.424;13.482;2022-07-24T10:50:59;6.90;;;2.17;;
46216;SDS011;47258;59.424;13.482;2022-07-24T10:53:42;5.45;;;1.85;;
46216;SDS011;47258;59.424;13.482;2022-07-24T10:56:16;2.10;;;1.50;;
46216;SDS011;47258;59.424;13.482;2022-07-24T10:58:52;4.10;;;1.98;;
46216;SDS011;47258;59.424;13.482;2022-07-24T11:01:28;4.17;;;1.93;;
46216;SDS011;47258;59.424;13.482;2022-07-24T11:03:57;8.88;;;2.13;;
46216;SDS011;47258;59.424;13.482;2022-07-24T11:06:38;4.25;;;2.10;;
46216;SDS011;47258;59.424;13.482;2022-07-24T11:09:07;8.50;;;2.13;;
46216;SDS011;47258;59.424;13.482;2022-07-24T11:11:35;6.13;;;1.52;;
46216;SDS011;47258;59.424;13.482;2022-07-24T11:14:07;4.90;;;2.20;;
46216;SDS011;47258;59.424;13.482;2022-07-24T11:16:36;8.02;;;2.33;;
46216;SDS011;47258;59.424;13.482;2022-07-24T11:22:10;7.10;;;2.30;;
46216;SDS011;47258;59.424;13.482;2022-07-24T11:24:41;6.68;;;1.77;;
46216;SDS011;47258;59.424;13.482;2022-07-24T11:27:42;5.82;;;1.65;;
46216;SDS011;47258;59.424;13.482;2022-07-24T11:30:17;6.93;;;2.15;;
46216;SDS011;47258;59.424;13.482;2022-07-24T11:32:45;4.50;;;1.60;;
46216;SDS011;47258;59.424;13.482;2022-07-24T11:35:13;5.18;;;2.47;;
46216;SDS011;47258;59.424;13.482;2022-07-24T11:37:42;4.35;;;1.55;;
46216;SDS011;47258;59.424;13.482;2022-07-24T11:40:13;4.43;;;2.05;;
46216;SDS011;47258;59.424;13.482;2022-07-24T11:42:43;8.60;;;1.80;;
46216;SDS011;47258;59.424;13.482;2022-07-24T11:45:10;4.57;;;1.70;;
46216;SDS011;47258;59.424;13.482;2022-07-24T11:47:38;4.32;;;1.38;;
46216;SDS011;47258;59.424;13.482;2022-07-24T11:50:06;3.42;;;1.55;;
46216;SDS011;47258;59.424;13.482;2022-07-24T11:55:03;2.35;;;1.27;;
46216;SDS011;47258;59.424;13.482;2022-07-24T11:57:32;4.70;;;1.83;;
46216;SDS011;47258;59.424;13.482;2022-07-24T12:00:03;3.53;;;1.50;;
46216;SDS011;47258;59.424;13.482;2022-07-24T12:02:34;4.32;;;1.92;;
46216;SDS011;47258;59.424;13.482;2022-07-24T12:05:01;4.80;;;2.13;;
46216;SDS011;47258;59.424;13.482;2022-07-24T12:07:28;3.38;;;1.30;;
46216;SDS011;47258;59.424;13.482;2022-07-24T12:09:55;2.47;;;1.60;;
46216;SDS011;47258;59.424;13.482;2022-07-24T12:12:24;4.00;;;2.03;;
46216;SDS011;47258;59.424;13.482;2022-07-24T12:14:53;4.63;;;1.60;;
46216;SDS011;47258;59.424;13.482;2022-07-24T12:17:30;3.65;;;1.55;;
46216;SDS011;47258;59.424;13.482;2022-07-24T12:19:59;5.80;;;1.77;;
46216;SDS011;47258;59.424;13.482;2022-07-24T12:22:27;4.45;;;1.55;;
46216;SDS011;47258;59.424;13.482;2022-07-24T12:24:55;2.65;;;1.48;;
46216;SDS011;47258;59.424;13.482;2022-07-24T12:27:33;2.65;;;1.35;;
46216;SDS011;47258;59.424;13.482;2022-07-24T12:30:01;2.40;;;1.48;;
46216;SDS011;47258;59.424;13.482;2022-07-24T12:32:31;6.43;;;1.90;;
46216;SDS011;47258;59.424;13.482;2022-07-24T12:34:59;4.07;;;1.48;;
46216;SDS011;47258;59.424;13.482;2022-07-24T12:37:37;6.75;;;1.60;;
46216;SDS011;47258;59.424;13.482;2022-07-24T12:40:04;6.97;;;1.48;;
46216;SDS011;47258;59.424;13.482;2022-07-24T12:42:32;4.30;;;0.98;;
46216;SDS011;47258;59.424;13.482;2022-07-24T12:45:05;4.20;;;1.10;;
46216;SDS011;47258;59.424;13.482;2022-07-24T12:47:36;4.40;;;1.42;;
46216;SDS011;47258;59.424;13.482;2022-07-24T12:51:06;2.30;;;1.13;;
46216;SDS011;47258;59.424;13.482;2022-07-24T12:53:35;6.95;;;1.58;;
46216;SDS011;47258;59.424;13.482;2022-07-24T12:56:05;1.52;;;1.15;;
46216;SDS011;47258;59.424;13.482;2022-07-24T12:58:47;8.02;;;2.08;;
46216;SDS011;47258;59.424;13.482;2022-07-24T13:01:26;4.22;;;1.48;;
46216;SDS011;47258;59.424;13.482;2022-07-24T13:03:58;3.97;;;1.63;;
46216;SDS011;47258;59.424;13.482;2022-07-24T13:06:33;3.70;;;1.45;;
46216;SDS011;47258;59.424;13.482;2022-07-24T13:09:02;1.85;;;1.20;;
46216;SDS011;47258;59.424;13.482;2022-07-24T13:11:30;4.22;;;1.50;;
46216;SDS011;47258;59.424;13.482;2022-07-24T13:13:57;3.92;;;1.33;;
46216;SDS011;47258;59.424;13.482;2022-07-24T13:16:26;7.85;;;2.63;;
46216;SDS011;47258;59.424;13.482;2022-07-24T13:18:54;3.03;;;1.80;;
46216;SDS011;47258;59.424;13.482;2022-07-24T13:21:23;1.30;;;1.20;;
46216;SDS011;47258;59.424;13.482;2022-07-24T13:23:50;2.95;;;1.80;;
46216;SDS011;47258;59.424;13.482;2022-07-24T13:26:17;3.28;;;1.50;;
46216;SDS011;47258;59.424;13.482;2022-07-24T13:28:45;3.63;;;1.20;;
46216;SDS011;47258;59.424;13.482;2022-07-24T13:31:12;5.70;;;1.70;;
46216;SDS011;47258;59.424;13.482;2022-07-24T13:33:39;2.38;;;1.38;;
46216;SDS011;47258;59.424;13.482;2022-07-24T13:36:08;3.15;;;2.08;;
46216;SDS011;47258;59.424;13.482;2022-07-24T13:38:35;3.83;;;2.63;;
46216;SDS011;47258;59.424;13.482;2022-07-24T13:41:02;5.35;;;3.33;;
46216;SDS011;47258;59.424;13.482;2022-07-24T13:43:29;7.65;;;2.50;;
46216;SDS011;47258;59.424;13.482;2022-07-24T13:45:56;3.20;;;2.53;;
46216;SDS011;47258;59.424;13.482;2022-07-24T13:48:23;5.05;;;3.28;;
46216;SDS011;47258;59.424;13.482;2022-07-24T13:50:50;4.15;;;3.13;;
46216;SDS011;47258;59.424;13.482;2022-07-24T13:53:18;8.23;;;2.70;;
46216;SDS011;47258;59.424;13.482;2022-07-24T13:55:45;4.93;;;3.50;;
46216;SDS011;47258;59.424;13.482;2022-07-24T13:58:12;5.38;;;2.75;;
46216;SDS011;47258;59.424;13.482;2022-07-24T14:00:39;4.85;;;2.55;;
46216;SDS011;47258;59.424;13.482;2022-07-24T14:03:06;2.95;;;2.47;;
46216;SDS011;47258;59.424;13.482;2022-07-24T14:05:34;5.50;;;2.28;;
46216;SDS011;47258;59.424;13.482;2022-07-24T14:08:01;2.88;;;2.60;;
46216;SDS011;47258;59.424;13.482;2022-07-24T14:10:30;7.13;;;2.20;;
46216;SDS011;47258;59.424;13.482;2022-07-24T14:12:57;4.93;;;2.47;;
46216;SDS011;47258;59.424;13.482;2022-07-24T14:15:24;3.72;;;2.22;;
46216;SDS011;47258;59.424;13.482;2022-07-24T14:17:52;2.55;;;2.03;;
46216;SDS011;47258;59.424;13.482;2022-07-24T14:20:19;5.57;;;2.47;;
46216;SDS011;47258;59.424;13.482;2022-07-24T14:22:45;2.60;;;1.70;;
46216;SDS011;47258;59.424;13.482;2022-07-24T14:25:12;4.13;;;1.92;;
46216;SDS011;47258;59.424;13.482;2022-07-24T14:27:41;4.18;;;1.90;;
46216;SDS011;47258;59.424;13.482;2022-07-24T14:30:09;4.45;;;1.85;;
46216;SDS011;47258;59.424;13.482;2022-07-24T14:32:36;5.43;;;2.58;;
46216;SDS011;47258;59.424;13.482;2022-07-24T14:35:03;3.10;;;1.80;;
46216;SDS011;47258;59.424;13.482;2022-07-24T14:37:32;6.00;;;1.85;;
46216;SDS011;47258;59.424;13.482;2022-07-24T14:39:59;1.90;;;1.52;;
46216;SDS011;47258;59.424;13.482;2022-07-24T14:42:26;2.47;;;1.38;;
46216;SDS011;47258;59.424;13.482;2022-07-24T14:44:55;8.20;;;2.13;;
46216;SDS011;47258;59.424;13.482;2022-07-24T14:47:22;2.83;;;1.80;;
46216;SDS011;47258;59.424;13.482;2022-07-24T14:49:49;4.57;;;2.63;;
46216;SDS011;47258;59.424;13.482;2022-07-24T14:52:16;3.50;;;1.48;;
46216;SDS011;47258;59.424;13.482;2022-07-24T14:54:43;3.92;;;1.67;;
46216;SDS011;47258;59.424;13.482;2022-07-24T14:57:11;4.35;;;1.65;;
46216;SDS011;47258;59.424;13.482;2022-07-24T14:59:38;3.47;;;1.92;;
46216;SDS011;47258;59.424;13.482;2022-07-24T15:02:06;4.68;;;1.70;;